createdAt,value
2017-08-16T00:00:28.042Z,67.04
2017-08-16T00:01:38.531Z,66.66
2017-08-16T00:02:49.009Z,67.04
2017-08-16T00:03:59.490Z,66.85
2017-08-16T00:05:10.213Z,67.24
2017-08-16T00:06:20.720Z,67.24
2017-08-16T00:07:31.166Z,67.43
2017-08-16T00:08:41.370Z,67.33
2017-08-16T00:09:51.601Z,68.1
2017-08-16T00:11:02.289Z,68.01
2017-08-16T00:12:12.783Z,67.91
2017-08-16T00:13:22.791Z,68.4
2017-08-16T00:14:33.628Z,68.46
2017-08-16T00:15:44.083Z,68.4
2017-08-16T00:16:54.772Z,68.26
2017-08-16T00:18:05.299Z,68.65
2017-08-16T00:19:15.752Z,68.94
2017-08-16T00:20:26.233Z,68.46
2017-08-16T00:21:36.402Z,68.36
2017-08-16T00:22:47.177Z,68.75
2017-08-16T00:23:57.635Z,69.04
2017-08-16T00:25:08.344Z,68.26
2017-08-16T00:26:18.824Z,68.65
2017-08-16T00:27:29.326Z,68.46
2017-08-16T00:28:40.054Z,68.84
2017-08-16T00:29:50.564Z,68.46
2017-08-16T00:31:00.566Z,68.36
2017-08-16T00:32:11.157Z,68.65
2017-08-16T00:33:21.135Z,68.65
2017-08-16T00:34:31.899Z,69.04
2017-08-16T00:35:42.354Z,68.75
2017-08-16T00:36:52.884Z,68.94
2017-08-16T00:38:03.346Z,68.94
2017-08-16T00:39:13.875Z,69.13
2017-08-16T00:40:24.535Z,69.42
2017-08-16T00:41:34.994Z,69.42
2017-08-16T00:42:45.470Z,69.42
2017-08-16T00:43:55.662Z,69.52
2017-08-16T00:45:06.123Z,69.23
2017-08-16T00:46:16.859Z,69.62
2017-08-16T00:47:27.341Z,69.71
2017-08-16T00:48:37.847Z,69.71
2017-08-16T00:49:48.384Z,70.1
2017-08-16T00:50:58.840Z,69.62
2017-08-16T00:52:08.945Z,69.97
2017-08-16T00:53:19.516Z,69.97
2017-08-16T00:54:29.670Z,70.16
2017-08-16T00:55:40.124Z,70.36
2017-08-16T00:56:50.656Z,70.16
2017-08-16T00:58:01.724Z,70.06
2017-08-16T00:59:12.174Z,70.16
2017-08-16T01:00:22.765Z,70.36
2017-08-16T01:01:33.339Z,70.64
2017-08-16T01:02:43.821Z,70.26
2017-08-16T01:03:54.640Z,70.84
2017-08-16T01:05:05.142Z,70.84
2017-08-16T01:06:15.628Z,70.54
2017-08-16T01:07:25.768Z,70.7
2017-08-16T01:08:36.318Z,71.09
2017-08-16T01:09:47.028Z,70.9
2017-08-16T01:10:57.480Z,71.38
2017-08-16T01:12:07.688Z,71.19
2017-08-16T01:13:18.151Z,71
2017-08-16T01:14:28.631Z,71
2017-08-16T01:15:39.520Z,71.38
2017-08-16T01:16:49.317Z,71.09
2017-08-16T01:17:59.922Z,71
2017-08-16T01:19:10.370Z,71.38
2017-08-16T01:20:20.854Z,71.77
2017-08-16T01:21:31.285Z,71.96
2017-08-16T01:22:41.338Z,71.86
2017-08-16T01:23:51.794Z,71.67
2017-08-16T01:25:02.318Z,71.58
2017-08-16T01:26:13.027Z,71.86
2017-08-16T01:27:23.726Z,71.67
2017-08-16T01:28:34.199Z,71.77
2017-08-16T01:29:44.737Z,71.77
2017-08-16T01:30:55.178Z,71.58
2017-08-16T01:32:05.657Z,71.96
2017-08-16T01:33:16.053Z,71.86
2017-08-16T01:34:26.289Z,71.67
2017-08-16T01:35:36.967Z,71.96
2017-08-16T01:36:47.448Z,71.58
2017-08-16T01:37:57.881Z,71.77
2017-08-16T01:39:08.592Z,72.41
2017-08-16T01:40:19.153Z,71.96
2017-08-16T01:41:29.362Z,71.64
2017-08-16T01:42:39.823Z,71.96
2017-08-16T01:43:50.283Z,72.44
2017-08-16T01:45:00.998Z,72.25
2017-08-16T01:46:11.541Z,72.21
2017-08-16T01:47:21.693Z,72.31
2017-08-16T01:48:32.164Z,72.41
2017-08-16T01:49:42.325Z,72.21
2017-08-16T01:50:52.621Z,72.12
2017-08-16T01:52:02.832Z,72.41
2017-08-16T01:53:13.297Z,72.12
2017-08-16T01:54:25.186Z,72.21
2017-08-16T01:55:35.929Z,72.21
2017-08-16T01:56:46.622Z,72.12
2017-08-16T01:57:57.094Z,72.21
2017-08-16T01:59:07.544Z,72.31
2017-08-16T02:00:17.761Z,72.31
2017-08-16T02:01:28.218Z,72.41
2017-08-16T02:02:39.115Z,72.21
2017-08-16T02:03:49.590Z,72.31
2017-08-16T02:05:00.020Z,72.41
2017-08-16T02:06:10.495Z,72.79
2017-08-16T02:07:20.952Z,72.69
2017-08-16T02:08:31.644Z,72.79
2017-08-16T02:09:42.085Z,72.99
2017-08-16T02:10:52.907Z,72.99
2017-08-16T02:12:03.345Z,72.89
2017-08-16T02:13:13.171Z,72.99
2017-08-16T02:14:23.938Z,73.05
2017-08-16T02:15:34.536Z,73.33
2017-08-16T02:16:44.999Z,72.85
2017-08-16T02:17:55.435Z,72.85
2017-08-16T02:19:05.872Z,72.85
2017-08-16T02:20:16.607Z,73.14
2017-08-16T02:21:27.114Z,73.24
2017-08-16T02:22:37.590Z,72.85
2017-08-16T02:23:48.065Z,72.85
2017-08-16T02:24:58.524Z,72.85
2017-08-16T02:26:09.282Z,72.37
2017-08-16T02:27:19.466Z,73.14
2017-08-16T02:28:29.615Z,72.18
2017-08-16T02:29:39.791Z,72.56
2017-08-16T02:30:50.336Z,73.14
2017-08-16T02:32:01.146Z,73.24
2017-08-16T02:33:11.633Z,72.56
2017-08-16T02:34:22.107Z,72.37
2017-08-16T02:35:32.581Z,72.56
2017-08-16T02:36:43.045Z,72.75
2017-08-16T02:37:53.714Z,72.75
2017-08-16T02:39:04.373Z,72.47
2017-08-16T02:40:14.542Z,73.01
2017-08-16T02:41:25.016Z,73.1
2017-08-16T02:42:35.521Z,73.1
2017-08-16T02:43:46.201Z,73.49
2017-08-16T02:44:55.929Z,73.39
2017-08-16T02:46:06.382Z,73.78
2017-08-16T02:47:16.900Z,73.88
2017-08-16T02:48:27.382Z,73.68
2017-08-16T02:49:38.381Z,74.07
2017-08-16T02:50:49.093Z,73.78
2017-08-16T02:51:59.231Z,73.72
2017-08-16T02:53:09.742Z,73.88
2017-08-16T02:54:20.196Z,73.88
2017-08-16T02:55:31.161Z,73.39
2017-08-16T02:56:41.615Z,73.78
2017-08-16T02:57:52.070Z,73.97
2017-08-16T02:59:02.542Z,73.49
2017-08-16T03:00:12.995Z,73.97
2017-08-16T03:01:23.710Z,73.58
2017-08-16T03:02:34.404Z,73.78
2017-08-16T03:03:44.591Z,73.78
2017-08-16T03:04:55.115Z,73.88
2017-08-16T03:06:05.595Z,73.68
2017-08-16T03:07:16.341Z,74.07
2017-08-16T03:08:26.872Z,74.16
2017-08-16T03:09:37.533Z,74.36
2017-08-16T03:10:48.008Z,74.36
2017-08-16T03:11:58.163Z,74.45
2017-08-16T03:13:08.984Z,74.45
2017-08-16T03:14:19.452Z,74.65
2017-08-16T03:15:29.937Z,74.93
2017-08-16T03:16:39.987Z,74.74
2017-08-16T03:17:50.211Z,74.84
2017-08-16T03:19:01.023Z,75.03
2017-08-16T03:20:11.481Z,74.74
2017-08-16T03:21:21.974Z,74.93
2017-08-16T03:22:32.494Z,75.03
2017-08-16T03:23:43.028Z,74.74
2017-08-16T03:24:53.705Z,74.84
2017-08-16T03:26:04.405Z,75.13
2017-08-16T03:27:14.669Z,75.13
2017-08-16T03:28:25.230Z,75.03
2017-08-16T03:29:35.386Z,75.03
2017-08-16T03:30:46.128Z,74.93
2017-08-16T03:31:56.631Z,75.03
2017-08-16T03:33:06.826Z,75.32
2017-08-16T03:34:16.989Z,75.13
2017-08-16T03:35:27.483Z,75.32
2017-08-16T03:36:38.209Z,75.13
2017-08-16T03:37:48.237Z,75.13
2017-08-16T03:38:58.618Z,74.93
2017-08-16T03:40:09.074Z,74.55
2017-08-16T03:41:19.601Z,74.84
2017-08-16T03:42:29.700Z,75.03
2017-08-16T03:43:40.189Z,75.03
2017-08-16T03:44:50.641Z,75.03
2017-08-16T03:46:01.126Z,74.93
2017-08-16T03:47:11.619Z,75.03
2017-08-16T03:48:22.347Z,75.23
2017-08-16T03:49:32.808Z,75.51
2017-08-16T03:50:43.270Z,75.71
2017-08-16T03:51:53.706Z,75.28
2017-08-16T03:53:03.540Z,75.38
2017-08-16T03:54:14.269Z,75.51
2017-08-16T03:55:24.748Z,75.51
2017-08-16T03:56:34.995Z,75.38
2017-08-16T03:57:44.988Z,75.42
2017-08-16T03:58:55.157Z,75.51
2017-08-16T04:00:06.057Z,75.42
2017-08-16T04:01:16.213Z,75.51
2017-08-16T04:02:26.922Z,75.48
2017-08-16T04:03:37.452Z,75.51
2017-08-16T04:04:47.952Z,75.38
2017-08-16T04:05:58.653Z,75.38
2017-08-16T04:07:08.656Z,75.19
2017-08-16T04:08:19.357Z,75.19
2017-08-16T04:09:29.813Z,75.09
2017-08-16T04:10:40.311Z,75.48
2017-08-16T04:11:51.068Z,75.96
2017-08-16T04:13:01.591Z,75.96
2017-08-16T04:14:11.751Z,75.86
2017-08-16T04:15:22.219Z,76.25
2017-08-16T04:16:32.776Z,75.96
2017-08-16T04:17:43.504Z,76.44
2017-08-16T04:18:53.673Z,76.44
2017-08-16T04:20:04.130Z,76.82
2017-08-16T04:21:14.629Z,76.63
2017-08-16T04:22:25.112Z,76.63
2017-08-16T04:23:36.052Z,76.63
2017-08-16T04:24:46.533Z,76.63
2017-08-16T04:25:57.031Z,76.44
2017-08-16T04:27:07.547Z,76.63
2017-08-16T04:28:18.152Z,76.73
2017-08-16T04:29:28.854Z,76.73
2017-08-16T04:30:39.396Z,76.82
2017-08-16T04:31:49.567Z,76.73
2017-08-16T04:33:00.107Z,76.63
2017-08-16T04:34:10.766Z,77.01
2017-08-16T04:35:21.521Z,77.11
2017-08-16T04:36:31.981Z,76.92
2017-08-16T04:37:42.667Z,76.63
2017-08-16T04:38:53.132Z,76.73
2017-08-16T04:40:03.597Z,76.73
2017-08-16T04:41:14.316Z,77.21
2017-08-16T04:42:24.493Z,77.78
2017-08-16T04:43:34.715Z,77.59
2017-08-16T04:44:45.159Z,77.4
2017-08-16T04:45:55.636Z,77.31
2017-08-16T04:47:06.068Z,77.59
2017-08-16T04:48:16.591Z,77.59
2017-08-16T04:49:27.037Z,77.59
2017-08-16T04:50:37.723Z,77.21
2017-08-16T04:51:48.192Z,77.69
2017-08-16T04:52:58.691Z,77.78
2017-08-16T04:54:09.147Z,78.02
2017-08-16T04:55:19.662Z,77.4
2017-08-16T04:56:29.799Z,77.73
2017-08-16T04:57:40.313Z,77.83
2017-08-16T04:58:51.002Z,77.92
2017-08-16T05:00:01.463Z,78.11
2017-08-16T05:01:11.935Z,78.11
2017-08-16T05:02:21.963Z,78.21
2017-08-16T05:03:32.419Z,78.17
2017-08-16T05:04:43.136Z,78.94
2017-08-16T05:05:53.819Z,78.85
2017-08-16T05:07:04.260Z,79.23
2017-08-16T05:08:14.928Z,79.03
2017-08-16T05:09:25.415Z,79.81
2017-08-16T05:10:36.154Z,80
2017-08-16T05:11:46.628Z,80.58
2017-08-16T05:12:57.115Z,81.06
2017-08-16T05:14:07.621Z,81.06
2017-08-16T05:15:18.093Z,81.73
2017-08-16T05:16:28.481Z,81.79
2017-08-16T05:17:39.036Z,81.6
2017-08-16T05:18:50.143Z,81.6
2017-08-16T05:20:00.595Z,81.7
2017-08-16T05:21:11.659Z,81.5
2017-08-16T05:22:22.693Z,81.88
2017-08-16T05:23:33.151Z,81.79
2017-08-16T05:24:43.710Z,81.6
2017-08-16T05:25:54.409Z,81.6
2017-08-16T05:27:04.870Z,81.35
2017-08-16T05:28:15.617Z,81.98
2017-08-16T05:29:26.089Z,82.17
2017-08-16T05:30:36.577Z,82.17
2017-08-16T05:31:47.040Z,82.27
2017-08-16T05:32:57.218Z,82.08
2017-08-16T05:34:07.654Z,83.04
2017-08-16T05:35:18.174Z,82.85
2017-08-16T05:36:28.636Z,82.65
2017-08-16T05:37:39.157Z,82.31
2017-08-16T05:38:49.871Z,82.46
2017-08-16T05:40:00.117Z,82.31
2017-08-16T05:41:10.681Z,82.08
2017-08-16T05:42:21.142Z,81.93
2017-08-16T05:43:31.664Z,82.21
2017-08-16T05:44:42.147Z,82.12
2017-08-16T05:45:52.103Z,82.31
2017-08-16T05:47:02.557Z,82.5
2017-08-16T05:48:13.030Z,82.12
2017-08-16T05:49:23.482Z,82.02
2017-08-16T05:50:34.011Z,82.6
2017-08-16T05:51:44.715Z,82.31
2017-08-16T05:52:55.180Z,82.41
2017-08-16T05:54:05.792Z,82.5
2017-08-16T05:55:16.079Z,82.21
2017-08-16T05:56:26.632Z,82.21
2017-08-16T05:57:37.352Z,82.12
2017-08-16T05:58:48.065Z,82.6
2017-08-16T05:59:58.290Z,82.6
2017-08-16T06:01:08.433Z,82.6
2017-08-16T06:02:18.441Z,83.37
2017-08-16T06:03:29.156Z,83.47
2017-08-16T06:04:39.618Z,83.37
2017-08-16T06:05:50.072Z,83.18
2017-08-16T06:07:00.295Z,83.23
2017-08-16T06:08:10.761Z,83.28
2017-08-16T06:09:21.488Z,83.52
2017-08-16T06:10:31.976Z,84
2017-08-16T06:11:42.496Z,83.52
2017-08-16T06:12:53.024Z,83.52
2017-08-16T06:14:03.482Z,83.56
2017-08-16T06:15:14.232Z,83.66
2017-08-16T06:16:24.706Z,83.47
2017-08-16T06:17:35.197Z,83.47
2017-08-16T06:18:45.337Z,84.33
2017-08-16T06:19:55.866Z,84.39
2017-08-16T06:21:06.620Z,84.29
2017-08-16T06:22:16.843Z,84.1
2017-08-16T06:23:27.538Z,84.29
2017-08-16T06:24:37.708Z,84.1
2017-08-16T06:25:48.196Z,84.67
2017-08-16T06:26:58.913Z,84.77
2017-08-16T06:28:08.755Z,84.58
2017-08-16T06:29:19.217Z,84.77
2017-08-16T06:30:29.692Z,84.77
2017-08-16T06:31:39.911Z,84.87
2017-08-16T06:32:50.612Z,84.97
2017-08-16T06:34:01.098Z,84.87
2017-08-16T06:35:11.721Z,85.16
2017-08-16T06:36:22.199Z,85.35
2017-08-16T06:37:32.661Z,84.77
2017-08-16T06:38:43.405Z,85.35
2017-08-16T06:39:54.015Z,85.44
2017-08-16T06:41:04.680Z,85.44
2017-08-16T06:42:15.141Z,84.48
2017-08-16T06:43:25.612Z,84.97
2017-08-16T06:44:36.359Z,84.81
2017-08-16T06:45:46.489Z,84.72
2017-08-16T06:46:57.181Z,84.81
2017-08-16T06:48:07.675Z,84.33
2017-08-16T06:49:18.148Z,84.43
2017-08-16T06:50:28.861Z,83.75
2017-08-16T06:51:39.330Z,83.66
2017-08-16T06:52:49.378Z,84.33
2017-08-16T06:53:59.880Z,84.23
2017-08-16T06:55:10.357Z,84.33
2017-08-16T06:56:21.107Z,84.33
2017-08-16T06:57:31.590Z,84.14
2017-08-16T06:58:41.761Z,84.05
2017-08-16T06:59:52.086Z,84.33
2017-08-16T07:01:03.016Z,83.56
2017-08-16T07:02:13.815Z,83.56
2017-08-16T07:03:23.528Z,83.75
2017-08-16T07:04:34.013Z,84.05
2017-08-16T07:05:44.453Z,84.23
2017-08-16T07:06:54.505Z,84.43
2017-08-16T07:08:05.235Z,84.43
2017-08-16T07:09:15.798Z,84.05
2017-08-16T07:10:26.265Z,84.05
2017-08-16T07:11:36.415Z,83.85
2017-08-16T07:12:47.012Z,83.95
2017-08-16T07:13:57.464Z,84.43
2017-08-16T07:15:08.093Z,84.23
2017-08-16T07:16:18.614Z,84.53
2017-08-16T07:17:28.619Z,84.05
2017-08-16T07:18:38.776Z,84.33
2017-08-16T07:19:49.625Z,83.47
2017-08-16T07:21:00.092Z,84.38
2017-08-16T07:22:10.246Z,84.09
2017-08-16T07:23:20.731Z,83.89
2017-08-16T07:24:31.206Z,83.61
2017-08-16T07:25:41.928Z,83.31
2017-08-16T07:26:52.385Z,83.61
2017-08-16T07:28:02.879Z,82.93
2017-08-16T07:29:13.382Z,82.39
2017-08-16T07:30:23.864Z,82.59
2017-08-16T07:31:34.572Z,82.29
2017-08-16T07:32:45.131Z,82.39
2017-08-16T07:33:54.854Z,81.91
2017-08-16T07:35:05.111Z,81.62
2017-08-16T07:36:15.272Z,81.85
2017-08-16T07:37:25.679Z,81.47
2017-08-16T07:38:36.279Z,81.18
2017-08-16T07:39:46.741Z,81.09
2017-08-16T07:40:57.307Z,79.93
2017-08-16T07:42:07.496Z,80.41
2017-08-16T07:43:18.264Z,79.64
2017-08-16T07:44:28.430Z,79.74
2017-08-16T07:45:38.590Z,79.44
2017-08-16T07:46:48.756Z,79.06
2017-08-16T07:47:58.886Z,79.06
2017-08-16T07:49:09.356Z,78.77
2017-08-16T07:50:19.554Z,78.86
2017-08-16T07:51:30.018Z,78.67
2017-08-16T07:52:40.205Z,79.06
2017-08-16T07:53:50.727Z,78.58
2017-08-16T07:55:01.467Z,76.84
2017-08-16T07:56:11.958Z,77.26
2017-08-16T07:57:22.440Z,76.98
2017-08-16T07:58:32.908Z,76.98
2017-08-16T07:59:43.367Z,76.5
2017-08-16T08:00:54.343Z,76.68
2017-08-16T08:02:04.797Z,75.72
2017-08-16T08:03:14.969Z,74.69
2017-08-16T08:04:25.434Z,74.51
2017-08-16T08:05:35.915Z,75.18
2017-08-16T08:06:46.614Z,74.99
2017-08-16T08:07:57.234Z,75.02
2017-08-16T08:09:07.751Z,74.16
2017-08-16T08:10:17.977Z,74.19
2017-08-16T08:11:28.451Z,73.42
2017-08-16T08:12:38.925Z,72.94
2017-08-16T08:13:49.373Z,71.52
2017-08-16T08:14:59.866Z,71.72
2017-08-16T08:16:10.035Z,71.52
2017-08-16T08:17:20.515Z,71.14
2017-08-16T08:18:31.265Z,70.46
2017-08-16T08:19:41.435Z,70.01
2017-08-16T08:20:51.917Z,69.53
2017-08-16T08:22:02.404Z,68.01
2017-08-16T08:23:13.003Z,67.91
2017-08-16T08:24:23.323Z,67.95
2017-08-16T08:25:33.780Z,65.63
2017-08-16T08:26:44.263Z,64.5
2017-08-16T08:27:54.826Z,64.2
2017-08-16T08:29:05.312Z,64.79
2017-08-16T08:30:16.131Z,64.89
2017-08-16T08:31:26.616Z,64.79
2017-08-16T08:32:36.763Z,64.5
2017-08-16T08:33:47.216Z,64.07
2017-08-16T08:34:57.712Z,64.56
2017-08-16T08:36:08.407Z,65.2
2017-08-16T08:37:18.867Z,64.53
2017-08-16T08:38:29.604Z,64.43
2017-08-16T08:39:40.090Z,64.43
2017-08-16T08:40:50.665Z,65.01
2017-08-16T08:42:01.385Z,65.17
2017-08-16T08:43:12.105Z,65.37
2017-08-16T08:44:22.266Z,65.37
2017-08-16T08:45:32.759Z,65.75
2017-08-16T08:46:43.073Z,64.89
2017-08-16T08:47:53.759Z,64.92
2017-08-16T08:49:04.221Z,65.5
2017-08-16T08:50:14.716Z,65.4
2017-08-16T08:51:25.215Z,65.2
2017-08-16T08:52:35.665Z,63.56
2017-08-16T08:53:46.557Z,63.49
2017-08-16T08:54:57.081Z,63.69
2017-08-16T08:56:07.549Z,64.07
2017-08-16T08:57:18.008Z,63.89
2017-08-16T08:58:28.493Z,63.69
2017-08-16T08:59:39.221Z,63.82
2017-08-16T09:00:49.698Z,63.98
2017-08-16T09:02:00.190Z,63.62
2017-08-16T09:03:10.362Z,63.24
2017-08-16T09:04:20.210Z,62.37
2017-08-16T09:05:31.084Z,62.24
2017-08-16T09:06:41.562Z,62.24
2017-08-16T09:07:52.053Z,62.92
2017-08-16T09:09:02.508Z,62.88
2017-08-16T09:10:12.994Z,62.98
2017-08-16T09:11:23.314Z,63.18
2017-08-16T09:12:33.770Z,62.5
2017-08-16T09:13:43.959Z,62.5
2017-08-16T09:14:54.506Z,62.69
2017-08-16T09:16:04.960Z,62.88
2017-08-16T09:17:15.673Z,63.34
2017-08-16T09:18:26.277Z,63.53
2017-08-16T09:19:36.770Z,63.08
2017-08-16T09:20:47.227Z,63.18
2017-08-16T09:21:57.700Z,62.34
2017-08-16T09:23:08.475Z,60.43
2017-08-16T09:24:18.930Z,59.75
2017-08-16T09:25:29.091Z,59.88
2017-08-16T09:26:39.550Z,60.39
2017-08-16T09:27:50.042Z,60.2
2017-08-16T09:29:00.460Z,59.84
2017-08-16T09:30:10.936Z,59
2017-08-16T09:31:21.460Z,59.19
2017-08-16T09:32:32.057Z,58.15
2017-08-16T09:33:42.532Z,57.96
2017-08-16T09:34:53.284Z,57.08
2017-08-16T09:36:03.905Z,55.92
2017-08-16T09:37:14.088Z,56.28
2017-08-16T09:38:24.552Z,56.93
2017-08-16T09:39:34.726Z,58.09
2017-08-16T09:40:45.582Z,58.74
2017-08-16T09:41:56.077Z,59.13
2017-08-16T09:43:06.577Z,59.13
2017-08-16T09:44:17.054Z,58.84
2017-08-16T09:45:27.531Z,58.84
2017-08-16T09:46:38.296Z,59.1
2017-08-16T09:47:48.845Z,59.97
2017-08-16T09:48:59.416Z,60.91
2017-08-16T09:50:10.057Z,60.52
2017-08-16T09:51:20.536Z,60.75
2017-08-16T09:52:31.400Z,60.55
2017-08-16T09:53:41.704Z,59.97
2017-08-16T09:54:52.445Z,60.55
2017-08-16T09:56:02.982Z,60.75
2017-08-16T09:57:13.449Z,60.72
2017-08-16T09:58:23.893Z,60.82
2017-08-16T09:59:34.361Z,61.21
2017-08-16T10:00:44.629Z,60.82
2017-08-16T10:01:55.178Z,61.04
2017-08-16T10:03:05.631Z,61.14
2017-08-16T10:04:16.411Z,61.14
2017-08-16T10:05:26.299Z,60.65
2017-08-16T10:06:36.773Z,61.07
2017-08-16T10:07:47.267Z,60.68
2017-08-16T10:08:57.724Z,60.23
2017-08-16T10:10:08.129Z,59.94
2017-08-16T10:11:18.598Z,59.87
2017-08-16T10:12:29.106Z,59
2017-08-16T10:13:39.330Z,58.51
2017-08-16T10:14:49.801Z,58.39
2017-08-16T10:16:00.545Z,59.06
2017-08-16T10:17:11.045Z,59.84
2017-08-16T10:18:21.134Z,60
2017-08-16T10:19:31.598Z,60.65
2017-08-16T10:20:42.093Z,61.04
2017-08-16T10:21:52.846Z,61.33
2017-08-16T10:23:03.375Z,61.14
2017-08-16T10:24:13.853Z,60.94
2017-08-16T10:25:24.339Z,61.01
2017-08-16T10:26:34.823Z,60.82
2017-08-16T10:27:45.534Z,61.01
2017-08-16T10:28:56.146Z,60.55
2017-08-16T10:30:07.632Z,60.75
2017-08-16T10:31:18.126Z,60.2
2017-08-16T10:32:28.596Z,59.91
2017-08-16T10:33:39.345Z,58.84
2017-08-16T10:34:49.849Z,58.87
2017-08-16T10:36:00.431Z,59.09
2017-08-16T10:37:10.952Z,59.28
2017-08-16T10:38:21.429Z,59.67
2017-08-16T10:39:32.257Z,59.38
2017-08-16T10:40:42.930Z,59.87
2017-08-16T10:41:53.445Z,60.32
2017-08-16T10:43:03.921Z,61
2017-08-16T10:44:14.112Z,60.97
2017-08-16T10:45:25.063Z,61.72
2017-08-16T10:46:35.542Z,61.91
2017-08-16T10:47:46.079Z,62.07
2017-08-16T10:48:56.550Z,61.52
2017-08-16T10:50:07.027Z,60.94
2017-08-16T10:51:17.730Z,60.78
2017-08-16T10:52:28.279Z,60.23
2017-08-16T10:53:39.014Z,59.38
2017-08-16T10:54:49.055Z,58.08
2017-08-16T10:55:59.639Z,57.62
2017-08-16T10:57:10.508Z,56.51
2017-08-16T10:58:20.969Z,53.72
2017-08-16T10:59:31.131Z,52.4
2017-08-16T11:00:41.320Z,53.09
2017-08-16T11:01:51.505Z,51.43
2017-08-16T11:03:02.233Z,52.7
2017-08-16T11:04:12.407Z,53.16
2017-08-16T11:05:22.901Z,53.23
2017-08-16T11:06:33.374Z,53.26
2017-08-16T11:07:43.847Z,53.23
2017-08-16T11:08:54.607Z,53.42
2017-08-16T11:10:04.762Z,53.52
2017-08-16T11:11:14.923Z,53.4
2017-08-16T11:12:25.412Z,53.4
2017-08-16T11:13:36.133Z,53.67
2017-08-16T11:14:46.868Z,54.25
2017-08-16T11:15:57.648Z,54.8
2017-08-16T11:17:08.152Z,55.36
2017-08-16T11:18:18.732Z,56.01
2017-08-16T11:19:29.085Z,56.21
2017-08-16T11:20:39.822Z,56.21
2017-08-16T11:21:50.017Z,56.01
2017-08-16T11:23:00.490Z,55.75
2017-08-16T11:24:11.054Z,55.29
2017-08-16T11:25:21.555Z,54.52
2017-08-16T11:26:32.332Z,54.05
2017-08-16T11:27:42.901Z,52.59
2017-08-16T11:28:53.400Z,53.5
2017-08-16T11:30:03.875Z,53.5
2017-08-16T11:31:14.452Z,53.4
2017-08-16T11:32:25.195Z,53.59
2017-08-16T11:33:35.715Z,53.4
2017-08-16T11:34:46.200Z,54.25
2017-08-16T11:35:56.738Z,54.64
2017-08-16T11:37:06.933Z,55.49
2017-08-16T11:38:17.692Z,55.88
2017-08-16T11:39:28.190Z,56.14
2017-08-16T11:40:38.660Z,56.4
2017-08-16T11:41:49.189Z,56.89
2017-08-16T11:42:59.378Z,57.44
2017-08-16T11:44:10.133Z,57.42
2017-08-16T11:45:20.616Z,58.39
2017-08-16T11:46:30.781Z,59.03
2017-08-16T11:47:40.936Z,58.94
2017-08-16T11:48:51.417Z,59.91
2017-08-16T11:50:01.831Z,59.78
2017-08-16T11:51:11.981Z,60.36
2017-08-16T11:52:22.459Z,60.36
2017-08-16T11:53:32.940Z,60.2
2017-08-16T11:54:43.416Z,60.39
2017-08-16T11:55:54.237Z,59.71
2017-08-16T11:57:04.706Z,59.06
2017-08-16T11:58:14.554Z,58.9
2017-08-16T11:59:25.045Z,57.34
2017-08-16T12:00:35.515Z,56.89
2017-08-16T12:01:46.342Z,55.85
2017-08-16T12:02:56.872Z,54.9
2017-08-16T12:04:07.637Z,54.05
2017-08-16T12:05:18.136Z,54.08
2017-08-16T12:06:28.144Z,53.99
2017-08-16T12:07:38.973Z,52.92
2017-08-16T12:08:49.473Z,53.59
2017-08-16T12:10:00.083Z,52.45
2017-08-16T12:11:10.312Z,52.06
2017-08-16T12:12:20.804Z,51.97
2017-08-16T12:13:31.543Z,51.12
2017-08-16T12:14:42.031Z,50.85
2017-08-16T12:15:52.511Z,50.65
2017-08-16T12:17:03.069Z,51.07
2017-08-16T12:18:13.552Z,49.9
2017-08-16T12:19:23.980Z,49.12
2017-08-16T12:20:34.589Z,49.12
2017-08-16T12:21:45.306Z,48.22
2017-08-16T12:22:55.879Z,49
2017-08-16T12:24:06.420Z,49.49
2017-08-16T12:25:17.240Z,49.56
2017-08-16T12:26:27.711Z,50.14
2017-08-16T12:27:38.316Z,49.63
2017-08-16T12:28:48.810Z,49.54
2017-08-16T12:29:59.028Z,49.24
2017-08-16T12:31:09.810Z,49.73
2017-08-16T12:32:20.307Z,49.92
2017-08-16T12:33:30.911Z,50.19
2017-08-16T12:34:41.409Z,49.8
2017-08-16T12:35:51.889Z,49.99
2017-08-16T12:37:02.748Z,49.71
2017-08-16T12:38:13.250Z,49.8
2017-08-16T12:39:23.765Z,50.09
2017-08-16T12:40:33.977Z,50.29
2017-08-16T12:41:44.745Z,50.29
2017-08-16T12:42:54.880Z,50.02
2017-08-16T12:44:05.378Z,49.73
2017-08-16T12:45:47.689Z,49.44
2017-08-16T12:46:58.213Z,49.66
2017-08-16T12:48:08.926Z,49.66
2017-08-16T12:49:19.407Z,48.97
2017-08-16T12:50:29.277Z,48.29
2017-08-16T12:51:39.743Z,47.61
2017-08-16T12:52:50.223Z,47.71
2017-08-16T12:54:00.681Z,48.19
2017-08-16T12:55:11.221Z,47.78
2017-08-16T12:56:21.713Z,48.75
2017-08-16T12:57:31.904Z,49.02
2017-08-16T12:58:42.183Z,49.22
2017-08-16T12:59:52.956Z,48.83
2017-08-16T13:01:03.463Z,49.12
2017-08-16T13:02:13.636Z,49.19
2017-08-16T13:03:24.115Z,48.34
2017-08-16T13:04:34.662Z,48.34
2017-08-16T13:05:45.643Z,48.25
2017-08-16T13:06:55.679Z,48.44
2017-08-16T13:08:06.188Z,48.34
2017-08-16T13:09:16.763Z,48.44
2017-08-16T13:10:26.983Z,48.46
2017-08-16T13:11:37.748Z,48.17
2017-08-16T13:12:48.231Z,47.78
2017-08-16T13:13:58.862Z,48.75
2017-08-16T13:15:09.594Z,49.15
2017-08-16T13:16:20.080Z,49.22
2017-08-16T13:17:30.942Z,49.02
2017-08-16T13:18:41.440Z,49.71
2017-08-16T13:19:51.958Z,49.22
2017-08-16T13:21:01.658Z,49.68
2017-08-16T13:22:11.678Z,49.58
2017-08-16T13:23:22.546Z,49.58
2017-08-16T13:24:33.062Z,49.1
2017-08-16T13:25:43.527Z,49.19
2017-08-16T13:26:54.005Z,49.49
2017-08-16T13:28:04.534Z,49.66
2017-08-16T13:29:15.331Z,49.66
2017-08-16T13:30:25.827Z,49
2017-08-16T13:31:36.327Z,48.9
2017-08-16T13:32:46.835Z,48.97
2017-08-16T13:33:57.353Z,48.9
2017-08-16T13:35:08.290Z,49.29
2017-08-16T13:36:19.458Z,49
2017-08-16T13:37:29.979Z,48.51
2017-08-16T13:38:40.497Z,48.61
2017-08-16T13:39:50.992Z,48.32
2017-08-16T13:41:01.704Z,48.51
2017-08-16T13:42:12.198Z,49.27
2017-08-16T13:43:22.790Z,49.56
2017-08-16T13:44:32.641Z,49.76
2017-08-16T13:45:42.830Z,50.04
2017-08-16T13:46:53.688Z,50.14
2017-08-16T13:48:04.247Z,50.04
2017-08-16T13:49:15.045Z,50.24
2017-08-16T13:50:25.531Z,49.76
2017-08-16T13:51:36.004Z,50.24
2017-08-16T13:52:46.770Z,49.95
2017-08-16T13:53:57.251Z,50.24
2017-08-16T13:55:07.413Z,50.7
2017-08-16T13:56:17.915Z,50.6
2017-08-16T13:57:28.414Z,49.82
2017-08-16T13:58:39.221Z,50.12
2017-08-16T13:59:49.260Z,50.31
2017-08-16T14:00:59.891Z,50.02
2017-08-16T14:02:10.411Z,49.8
2017-08-16T14:03:20.961Z,50.19
2017-08-16T14:04:31.766Z,50.41
2017-08-16T14:05:42.338Z,50.12
2017-08-16T14:06:52.830Z,50.12
2017-08-16T14:08:03.321Z,50.31
2017-08-16T14:09:13.176Z,49.82
2017-08-16T14:10:23.932Z,50.21
2017-08-16T14:11:34.635Z,49.73
2017-08-16T14:12:45.115Z,49.63
2017-08-16T14:13:55.620Z,49.73
2017-08-16T14:15:06.346Z,50.09
2017-08-16T14:16:16.643Z,50.19
2017-08-16T14:17:26.829Z,50.19
2017-08-16T14:18:37.460Z,50.09
2017-08-16T14:19:48.398Z,50.29
2017-08-16T14:20:58.891Z,50.38
2017-08-16T14:22:09.315Z,50.09
2017-08-16T14:23:19.806Z,50.07
2017-08-16T14:24:30.322Z,50.56
2017-08-16T14:25:40.521Z,50.46
2017-08-16T14:26:51.015Z,50.26
2017-08-16T14:28:01.894Z,50.94
2017-08-16T14:29:12.606Z,50.94
2017-08-16T14:30:23.194Z,51.04
2017-08-16T14:31:33.704Z,50.65
2017-08-16T14:32:44.283Z,50.74
2017-08-16T14:33:54.704Z,50.46
2017-08-16T14:35:05.241Z,50.65
2017-08-16T14:36:15.749Z,50.94
2017-08-16T14:37:26.238Z,50.77
2017-08-16T14:38:36.547Z,50.68
2017-08-16T14:39:47.365Z,50.77
2017-08-16T14:40:57.874Z,50.29
2017-08-16T14:42:08.402Z,50.68
2017-08-16T14:43:18.450Z,50.58
2017-08-16T14:44:28.670Z,50.68
2017-08-16T14:45:39.469Z,50.48
2017-08-16T14:46:49.515Z,50.29
2017-08-16T14:47:59.985Z,49.99
2017-08-16T14:49:10.496Z,50.19
2017-08-16T14:50:21.094Z,49.9
2017-08-16T14:51:32.123Z,49.99
2017-08-16T14:52:42.702Z,49.99
2017-08-16T14:53:53.225Z,49.9
2017-08-16T14:55:03.800Z,49.71
2017-08-16T14:56:14.062Z,49.61
2017-08-16T14:57:24.832Z,49.51
2017-08-16T14:58:35.255Z,49.71
2017-08-16T14:59:45.747Z,49.71
2017-08-16T15:00:56.214Z,49.8
2017-08-16T15:02:06.728Z,49.61
2017-08-16T15:03:17.614Z,49.61
2017-08-16T15:04:28.088Z,49.49
2017-08-16T15:05:38.549Z,49.49
2017-08-16T15:06:49.088Z,49.49
2017-08-16T15:07:59.291Z,49.51
2017-08-16T15:09:09.929Z,49.49
2017-08-16T15:10:20.405Z,49.41
2017-08-16T15:11:30.616Z,49.51